Phoenix, Arizona
Traffic Map
Current Weather Conditions
Phoenix, Arizona
Overcast Light Rain
Overcast
28°
Feels Like: 30°
Wind Chill: 28° Ceiling: 11000
Heat Index: 30° Visibility: 10mi
Dew Point: 21° Wind: 15mph
Humidity: 65% Direction: 60° (ENE)
Pressure: 29.84in Gusts: 0mph
Raw Report DataKPHX 162251Z 06013KT 10SM -RA FEW034 FEW090 OVC110 28/21 A2984 RMK AO2 SLP085 P0000 T02780206
Traffic Incident Summary
Active as of:
Severity:
Category:
InformationThere was an issue retrieving the traffic information for this location. Please try a different location or try again shortly.
Advertisements
Track Severe Weather on mobile